sensor_id;sensor_type;location;lat;lon;timestamp;temperature;humidity
55436;DHT22;41307;53.142;6.430;2022-10-30T00:00:54;14.20;99.90
55436;DHT22;41307;53.142;6.430;2022-10-30T00:03:19;14.30;99.90
55436;DHT22;41307;53.142;6.430;2022-10-30T00:05:47;14.30;99.90
55436;DHT22;41307;53.142;6.430;2022-10-30T00:08:15;14.30;99.90
55436;DHT22;41307;53.142;6.430;2022-10-30T00:10:41;14.30;99.90
55436;DHT22;41307;53.142;6.430;2022-10-30T00:13:08;14.40;99.90
55436;DHT22;41307;53.142;6.430;2022-10-30T00:15:34;14.50;99.90
55436;DHT22;41307;53.142;6.430;2022-10-30T00:18:00;14.50;99.90
55436;DHT22;41307;53.142;6.430;2022-10-30T00:20:26;14.40;99.90
55436;DHT22;41307;53.142;6.430;2022-10-30T00:22:52;14.50;99.90
55436;DHT22;41307;53.142;6.430;2022-10-30T00:25:17;14.50;99.90
55436;DHT22;41307;53.142;6.430;2022-10-30T00:27:43;14.40;99.90
55436;DHT22;41307;53.142;6.430;2022-10-30T00:30:10;14.50;99.90
55436;DHT22;41307;53.142;6.430;2022-10-30T00:32:35;14.40;99.90
55436;DHT22;41307;53.142;6.430;2022-10-30T00:35:01;14.40;99.90
55436;DHT22;41307;53.142;6.430;2022-10-30T00:37:27;14.40;99.90
55436;DHT22;41307;53.142;6.430;2022-10-30T00:39:53;14.60;99.90
55436;DHT22;41307;53.142;6.430;2022-10-30T00:42:18;14.40;99.90
55436;DHT22;41307;53.142;6.430;2022-10-30T00:50:05;14.30;99.90
55436;DHT22;41307;53.142;6.430;2022-10-30T00:52:39;14.30;99.90
55436;DHT22;41307;53.142;6.430;2022-10-30T00:55:10;14.20;99.90
55436;DHT22;41307;53.142;6.430;2022-10-30T00:57:39;14.20;99.90
55436;DHT22;41307;53.142;6.430;2022-10-30T01:00:06;14.10;99.90
55436;DHT22;41307;53.142;6.430;2022-10-30T01:02:32;14.10;99.90
55436;DHT22;41307;53.142;6.430;2022-10-30T01:04:58;14.10;99.90
55436;DHT22;41307;53.142;6.430;2022-10-30T01:07:25;14.40;99.90
55436;DHT22;41307;53.142;6.430;2022-10-30T01:09:51;14.10;99.90
55436;DHT22;41307;53.142;6.430;2022-10-30T01:12:17;14.00;99.90
55436;DHT22;41307;53.142;6.430;2022-10-30T01:14:46;14.10;99.90
55436;DHT22;41307;53.142;6.430;2022-10-30T01:17:36;14.00;99.90
55436;DHT22;41307;53.142;6.430;2022-10-30T01:23:27;14.00;99.90
55436;DHT22;41307;53.142;6.430;2022-10-30T01:31:50;13.90;99.90
55436;DHT22;41307;53.142;6.430;2022-10-30T01:37:35;13.90;99.90
55436;DHT22;41307;53.142;6.430;2022-10-30T01:40:11;13.90;99.90
55436;DHT22;41307;53.142;6.430;2022-10-30T01:42:47;13.90;99.90
55436;DHT22;41307;53.142;6.430;2022-10-30T01:45:28;13.90;99.90
55436;DHT22;41307;53.142;6.430;2022-10-30T01:48:11;13.90;99.90
55436;DHT22;41307;53.142;6.430;2022-10-30T01:54:15;13.80;99.90
55436;DHT22;41307;53.142;6.430;2022-10-30T01:59:50;13.70;99.90
55436;DHT22;41307;53.142;6.430;2022-10-30T02:02:18;13.70;99.90
55436;DHT22;41307;53.142;6.430;2022-10-30T02:04:44;13.70;99.90
55436;DHT22;41307;53.142;6.430;2022-10-30T02:07:10;13.70;99.90
55436;DHT22;41307;53.142;6.430;2022-10-30T02:09:37;13.70;99.90
55436;DHT22;41307;53.142;6.430;2022-10-30T02:12:04;13.70;99.90
55436;DHT22;41307;53.142;6.430;2022-10-30T02:14:38;13.70;99.90
55436;DHT22;41307;53.142;6.430;2022-10-30T02:17:06;13.70;99.90
55436;DHT22;41307;53.142;6.430;2022-10-30T02:19:32;13.70;99.90
55436;DHT22;41307;53.142;6.430;2022-10-30T02:21:59;13.70;99.90
55436;DHT22;41307;53.142;6.430;2022-10-30T02:24:24;13.70;99.90
55436;DHT22;41307;53.142;6.430;2022-10-30T02:26:50;13.70;99.90
55436;DHT22;41307;53.142;6.430;2022-10-30T02:29:16;13.70;99.90
55436;DHT22;41307;53.142;6.430;2022-10-30T02:31:45;13.60;99.90
55436;DHT22;41307;53.142;6.430;2022-10-30T02:34:11;13.70;99.90
55436;DHT22;41307;53.142;6.430;2022-10-30T02:36:37;13.70;99.90
55436;DHT22;41307;53.142;6.430;2022-10-30T02:39:02;13.70;99.90
55436;DHT22;41307;53.142;6.430;2022-10-30T02:41:28;13.70;99.90
55436;DHT22;41307;53.142;6.430;2022-10-30T02:43:54;13.60;99.90
55436;DHT22;41307;53.142;6.430;2022-10-30T02:46:20;13.70;99.90
55436;DHT22;41307;53.142;6.430;2022-10-30T02:48:46;13.60;99.90
55436;DHT22;41307;53.142;6.430;2022-10-30T02:51:12;13.60;99.90
55436;DHT22;41307;53.142;6.430;2022-10-30T02:53:38;13.60;99.90
55436;DHT22;41307;53.142;6.430;2022-10-30T02:56:06;13.60;99.90
55436;DHT22;41307;53.142;6.430;2022-10-30T02:58:32;13.50;99.90
55436;DHT22;41307;53.142;6.430;2022-10-30T03:01:13;13.50;99.90
55436;DHT22;41307;53.142;6.430;2022-10-30T03:03:39;13.60;99.90
55436;DHT22;41307;53.142;6.430;2022-10-30T03:06:07;13.40;99.90
55436;DHT22;41307;53.142;6.430;2022-10-30T03:08:34;13.60;99.90
55436;DHT22;41307;53.142;6.430;2022-10-30T03:11:06;13.40;99.90
55436;DHT22;41307;53.142;6.430;2022-10-30T03:13:33;13.30;99.90
55436;DHT22;41307;53.142;6.430;2022-10-30T03:16:04;13.30;99.90
55436;DHT22;41307;53.142;6.430;2022-10-30T03:18:31;13.30;99.90
55436;DHT22;41307;53.142;6.430;2022-10-30T03:21:01;13.30;99.90
55436;DHT22;41307;53.142;6.430;2022-10-30T03:23:28;13.30;99.90
55436;DHT22;41307;53.142;6.430;2022-10-30T03:25:55;13.30;99.90
55436;DHT22;41307;53.142;6.430;2022-10-30T03:28:22;13.30;99.90
55436;DHT22;41307;53.142;6.430;2022-10-30T03:30:49;13.30;99.90
55436;DHT22;41307;53.142;6.430;2022-10-30T03:33:16;13.30;99.90
55436;DHT22;41307;53.142;6.430;2022-10-30T03:35:44;13.30;99.90
55436;DHT22;41307;53.142;6.430;2022-10-30T03:38:13;13.30;99.90
55436;DHT22;41307;53.142;6.430;2022-10-30T03:40:39;13.30;99.90
55436;DHT22;41307;53.142;6.430;2022-10-30T03:43:06;13.30;99.90
55436;DHT22;41307;53.142;6.430;2022-10-30T03:45:33;13.20;99.90
55436;DHT22;41307;53.142;6.430;2022-10-30T03:48:03;13.50;99.90
55436;DHT22;41307;53.142;6.430;2022-10-30T03:50:29;13.30;99.90
55436;DHT22;41307;53.142;6.430;2022-10-30T03:52:55;13.30;99.90
55436;DHT22;41307;53.142;6.430;2022-10-30T03:55:22;13.20;99.90
55436;DHT22;41307;53.142;6.430;2022-10-30T03:57:48;13.20;99.90
55436;DHT22;41307;53.142;6.430;2022-10-30T04:00:15;13.20;99.90
55436;DHT22;41307;53.142;6.430;2022-10-30T04:02:49;13.20;99.90
55436;DHT22;41307;53.142;6.430;2022-10-30T04:05:16;13.20;99.90
55436;DHT22;41307;53.142;6.430;2022-10-30T04:07:42;13.10;99.90
55436;DHT22;41307;53.142;6.430;2022-10-30T04:10:08;13.10;99.90
55436;DHT22;41307;53.142;6.430;2022-10-30T04:12:34;13.10;99.90
55436;DHT22;41307;53.142;6.430;2022-10-30T04:15:00;13.00;99.90
55436;DHT22;41307;53.142;6.430;2022-10-30T04:17:26;13.00;99.90
55436;DHT22;41307;53.142;6.430;2022-10-30T04:19:52;13.00;99.90
55436;DHT22;41307;53.142;6.430;2022-10-30T04:22:17;12.90;99.90
55436;DHT22;41307;53.142;6.430;2022-10-30T04:24:43;12.90;99.90
55436;DHT22;41307;53.142;6.430;2022-10-30T04:27:10;12.90;99.90
55436;DHT22;41307;53.142;6.430;2022-10-30T04:29:37;12.80;99.90
55436;DHT22;41307;53.142;6.430;2022-10-30T04:32:03;12.90;99.90
55436;DHT22;41307;53.142;6.430;2022-10-30T04:34:29;12.90;99.90
55436;DHT22;41307;53.142;6.430;2022-10-30T04:36:55;12.80;99.90
55436;DHT22;41307;53.142;6.430;2022-10-30T04:39:20;12.90;99.90
55436;DHT22;41307;53.142;6.430;2022-10-30T04:41:46;12.80;99.90
55436;DHT22;41307;53.142;6.430;2022-10-30T04:44:12;12.80;99.90
55436;DHT22;41307;53.142;6.430;2022-10-30T04:46:37;12.80;99.90
55436;DHT22;41307;53.142;6.430;2022-10-30T04:49:03;12.80;99.90
55436;DHT22;41307;53.142;6.430;2022-10-30T04:51:29;12.80;99.90
55436;DHT22;41307;53.142;6.430;2022-10-30T04:53:54;12.80;99.90
55436;DHT22;41307;53.142;6.430;2022-10-30T04:56:20;12.80;99.90
55436;DHT22;41307;53.142;6.430;2022-10-30T04:58:46;12.80;99.90
55436;DHT22;41307;53.142;6.430;2022-10-30T05:01:11;12.80;99.90
55436;DHT22;41307;53.142;6.430;2022-10-30T05:03:37;12.80;99.90
55436;DHT22;41307;53.142;6.430;2022-10-30T05:06:17;12.70;99.90
55436;DHT22;41307;53.142;6.430;2022-10-30T05:08:44;12.80;99.90
55436;DHT22;41307;53.142;6.430;2022-10-30T05:11:09;12.80;99.90
55436;DHT22;41307;53.142;6.430;2022-10-30T05:13:35;12.80;99.90
55436;DHT22;41307;53.142;6.430;2022-10-30T05:16:01;12.70;99.90
55436;DHT22;41307;53.142;6.430;2022-10-30T05:18:26;12.70;99.90
55436;DHT22;41307;53.142;6.430;2022-10-30T05:20:52;12.70;99.90
55436;DHT22;41307;53.142;6.430;2022-10-30T05:23:18;12.70;99.90
55436;DHT22;41307;53.142;6.430;2022-10-30T05:25:43;12.70;99.90
55436;DHT22;41307;53.142;6.430;2022-10-30T05:28:09;12.70;99.90
55436;DHT22;41307;53.142;6.430;2022-10-30T05:30:35;12.60;99.90
55436;DHT22;41307;53.142;6.430;2022-10-30T05:33:02;12.60;99.90
55436;DHT22;41307;53.142;6.430;2022-10-30T05:35:29;12.60;99.90
55436;DHT22;41307;53.142;6.430;2022-10-30T05:37:58;12.60;99.90
55436;DHT22;41307;53.142;6.430;2022-10-30T05:40:24;12.60;99.90
55436;DHT22;41307;53.142;6.430;2022-10-30T05:42:50;12.50;99.90
55436;DHT22;41307;53.142;6.430;2022-10-30T05:45:16;12.50;99.90
55436;DHT22;41307;53.142;6.430;2022-10-30T05:47:42;12.60;99.90
55436;DHT22;41307;53.142;6.430;2022-10-30T05:50:09;12.70;99.90
55436;DHT22;41307;53.142;6.430;2022-10-30T05:52:36;12.40;99.90
55436;DHT22;41307;53.142;6.430;2022-10-30T05:55:02;12.40;99.90
55436;DHT22;41307;53.142;6.430;2022-10-30T05:57:28;12.40;99.90
55436;DHT22;41307;53.142;6.430;2022-10-30T05:59:54;12.30;99.90
55436;DHT22;41307;53.142;6.430;2022-10-30T06:02:20;12.30;99.90
55436;DHT22;41307;53.142;6.430;2022-10-30T06:04:46;12.30;99.90
55436;DHT22;41307;53.142;6.430;2022-10-30T06:07:11;12.30;99.90
55436;DHT22;41307;53.142;6.430;2022-10-30T06:09:37;12.20;99.90
55436;DHT22;41307;53.142;6.430;2022-10-30T06:12:03;12.20;99.90
55436;DHT22;41307;53.142;6.430;2022-10-30T06:14:29;12.20;99.90
55436;DHT22;41307;53.142;6.430;2022-10-30T06:16:54;12.20;99.90
55436;DHT22;41307;53.142;6.430;2022-10-30T06:19:20;12.20;99.90
55436;DHT22;41307;53.142;6.430;2022-10-30T06:21:46;12.20;99.90
55436;DHT22;41307;53.142;6.430;2022-10-30T06:24:12;12.20;99.90
55436;DHT22;41307;53.142;6.430;2022-10-30T06:26:38;12.20;99.90
55436;DHT22;41307;53.142;6.430;2022-10-30T06:29:04;12.20;99.90
55436;DHT22;41307;53.142;6.430;2022-10-30T06:31:29;12.10;99.90
55436;DHT22;41307;53.142;6.430;2022-10-30T06:33:55;12.40;99.90
55436;DHT22;41307;53.142;6.430;2022-10-30T06:36:21;12.20;99.90
55436;DHT22;41307;53.142;6.430;2022-10-30T06:38:46;12.10;99.90
55436;DHT22;41307;53.142;6.430;2022-10-30T06:41:12;12.10;99.90
55436;DHT22;41307;53.142;6.430;2022-10-30T06:43:38;12.10;99.90
55436;DHT22;41307;53.142;6.430;2022-10-30T06:46:04;12.10;99.90
55436;DHT22;41307;53.142;6.430;2022-10-30T06:48:30;12.20;99.90
55436;DHT22;41307;53.142;6.430;2022-10-30T06:50:58;12.20;99.90
55436;DHT22;41307;53.142;6.430;2022-10-30T06:53:24;12.20;99.90
55436;DHT22;41307;53.142;6.430;2022-10-30T06:55:58;12.20;99.90
55436;DHT22;41307;53.142;6.430;2022-10-30T06:58:24;12.30;99.90
55436;DHT22;41307;53.142;6.430;2022-10-30T07:00:50;12.30;99.90
55436;DHT22;41307;53.142;6.430;2022-10-30T07:03:17;12.30;99.90
55436;DHT22;41307;53.142;6.430;2022-10-30T07:05:43;12.30;99.90
55436;DHT22;41307;53.142;6.430;2022-10-30T07:08:09;12.30;99.90
55436;DHT22;41307;53.142;6.430;2022-10-30T07:10:34;12.50;99.90
55436;DHT22;41307;53.142;6.430;2022-10-30T07:13:00;12.40;99.90
55436;DHT22;41307;53.142;6.430;2022-10-30T07:15:26;12.50;99.90
55436;DHT22;41307;53.142;6.430;2022-10-30T07:18:00;12.40;99.90
55436;DHT22;41307;53.142;6.430;2022-10-30T07:20:29;12.50;99.90
55436;DHT22;41307;53.142;6.430;2022-10-30T07:22:55;12.60;99.90
55436;DHT22;41307;53.142;6.430;2022-10-30T07:25:20;12.60;99.90
55436;DHT22;41307;53.142;6.430;2022-10-30T07:27:50;12.60;99.90
55436;DHT22;41307;53.142;6.430;2022-10-30T07:30:18;12.70;99.90
55436;DHT22;41307;53.142;6.430;2022-10-30T07:32:44;12.60;99.90
55436;DHT22;41307;53.142;6.430;2022-10-30T07:35:12;12.70;99.90
55436;DHT22;41307;53.142;6.430;2022-10-30T07:37:39;12.80;99.90
55436;DHT22;41307;53.142;6.430;2022-10-30T07:40:06;12.80;99.90
55436;DHT22;41307;53.142;6.430;2022-10-30T07:42:32;12.80;99.90
55436;DHT22;41307;53.142;6.430;2022-10-30T07:44:58;12.90;99.90
55436;DHT22;41307;53.142;6.430;2022-10-30T07:47:24;13.00;99.90
55436;DHT22;41307;53.142;6.430;2022-10-30T07:49:50;12.90;99.90
55436;DHT22;41307;53.142;6.430;2022-10-30T07:52:15;13.00;99.90
55436;DHT22;41307;53.142;6.430;2022-10-30T07:54:41;13.10;99.90
55436;DHT22;41307;53.142;6.430;2022-10-30T07:57:07;13.20;99.90
55436;DHT22;41307;53.142;6.430;2022-10-30T07:59:33;13.20;99.90
55436;DHT22;41307;53.142;6.430;2022-10-30T08:01:59;13.20;99.90
55436;DHT22;41307;53.142;6.430;2022-10-30T08:04:25;13.30;99.90
55436;DHT22;41307;53.142;6.430;2022-10-30T08:06:52;13.40;99.90
55436;DHT22;41307;53.142;6.430;2022-10-30T08:09:18;13.50;99.90
55436;DHT22;41307;53.142;6.430;2022-10-30T08:11:44;13.60;99.90
55436;DHT22;41307;53.142;6.430;2022-10-30T08:14:10;13.70;99.90
55436;DHT22;41307;53.142;6.430;2022-10-30T08:16:35;14.00;99.90
55436;DHT22;41307;53.142;6.430;2022-10-30T08:19:01;14.20;99.90
55436;DHT22;41307;53.142;6.430;2022-10-30T08:21:27;14.50;99.90
55436;DHT22;41307;53.142;6.430;2022-10-30T08:23:53;14.90;99.90
55436;DHT22;41307;53.142;6.430;2022-10-30T08:26:18;15.20;99.90
55436;DHT22;41307;53.142;6.430;2022-10-30T08:28:44;15.70;99.90
55436;DHT22;41307;53.142;6.430;2022-10-30T08:31:10;16.20;99.90
55436;DHT22;41307;53.142;6.430;2022-10-30T08:33:35;16.70;99.90
55436;DHT22;41307;53.142;6.430;2022-10-30T08:36:01;17.10;99.90
55436;DHT22;41307;53.142;6.430;2022-10-30T08:38:27;17.60;99.90
55436;DHT22;41307;53.142;6.430;2022-10-30T08:40:54;18.10;99.90
55436;DHT22;41307;53.142;6.430;2022-10-30T08:43:20;18.50;99.90
55436;DHT22;41307;53.142;6.430;2022-10-30T08:45:46;18.80;99.90
55436;DHT22;41307;53.142;6.430;2022-10-30T08:48:14;19.20;99.90
55436;DHT22;41307;53.142;6.430;2022-10-30T08:50:40;19.40;99.90
55436;DHT22;41307;53.142;6.430;2022-10-30T08:53:12;19.60;99.90
55436;DHT22;41307;53.142;6.430;2022-10-30T08:55:38;19.90;99.90
55436;DHT22;41307;53.142;6.430;2022-10-30T08:58:04;20.40;99.90
55436;DHT22;41307;53.142;6.430;2022-10-30T09:00:29;20.50;99.90
55436;DHT22;41307;53.142;6.430;2022-10-30T09:02:55;20.70;99.90
55436;DHT22;41307;53.142;6.430;2022-10-30T09:05:21;20.80;99.90
55436;DHT22;41307;53.142;6.430;2022-10-30T09:07:47;21.10;99.90
55436;DHT22;41307;53.142;6.430;2022-10-30T09:10:13;21.40;99.90
55436;DHT22;41307;53.142;6.430;2022-10-30T09:12:40;21.70;99.90
55436;DHT22;41307;53.142;6.430;2022-10-30T09:15:06;22.00;99.90
55436;DHT22;41307;53.142;6.430;2022-10-30T09:17:32;22.40;99.90
55436;DHT22;41307;53.142;6.430;2022-10-30T09:19:58;22.70;99.90
55436;DHT22;41307;53.142;6.430;2022-10-30T09:22:24;22.80;99.90
55436;DHT22;41307;53.142;6.430;2022-10-30T09:24:49;23.10;99.90
55436;DHT22;41307;53.142;6.430;2022-10-30T09:27:15;23.20;99.90
55436;DHT22;41307;53.142;6.430;2022-10-30T09:29:41;23.40;99.90
55436;DHT22;41307;53.142;6.430;2022-10-30T09:32:08;23.30;99.90
55436;DHT22;41307;53.142;6.430;2022-10-30T09:34:35;23.10;99.90
55436;DHT22;41307;53.142;6.430;2022-10-30T09:37:01;22.90;99.90
55436;DHT22;41307;53.142;6.430;2022-10-30T09:39:26;22.80;99.90
55436;DHT22;41307;53.142;6.430;2022-10-30T09:50:54;23.60;99.90
55436;DHT22;41307;53.142;6.430;2022-10-30T09:53:43;23.10;99.90
55436;DHT22;41307;53.142;6.430;2022-10-30T10:01:41;22.40;99.90
55436;DHT22;41307;53.142;6.430;2022-10-30T10:07:01;21.80;99.90
55436;DHT22;41307;53.142;6.430;2022-10-30T10:09:30;22.40;99.90
55436;DHT22;41307;53.142;6.430;2022-10-30T10:12:36;22.80;99.90
55436;DHT22;41307;53.142;6.430;2022-10-30T10:15:10;23.30;99.90
55436;DHT22;41307;53.142;6.430;2022-10-30T10:17:40;23.40;99.90
55436;DHT22;41307;53.142;6.430;2022-10-30T10:20:27;23.10;99.90
55436;DHT22;41307;53.142;6.430;2022-10-30T10:22:56;22.60;99.90
55436;DHT22;41307;53.142;6.430;2022-10-30T10:25:24;22.20;99.90
55436;DHT22;41307;53.142;6.430;2022-10-30T10:30:23;21.90;99.90
55436;DHT22;41307;53.142;6.430;2022-10-30T10:33:12;21.80;99.90
55436;DHT22;41307;53.142;6.430;2022-10-30T10:38:28;22.20;99.90
55436;DHT22;41307;53.142;6.430;2022-10-30T10:41:23;22.50;99.90
55436;DHT22;41307;53.142;6.430;2022-10-30T10:46:34;22.50;99.90
55436;DHT22;41307;53.142;6.430;2022-10-30T10:49:23;22.30;99.90
55436;DHT22;41307;53.142;6.430;2022-10-30T10:51:54;21.80;99.90
55436;DHT22;41307;53.142;6.430;2022-10-30T10:54:29;21.60;99.90
55436;DHT22;41307;53.142;6.430;2022-10-30T10:56:56;21.50;99.90
55436;DHT22;41307;53.142;6.430;2022-10-30T10:59:43;21.50;99.90
55436;DHT22;41307;53.142;6.430;2022-10-30T11:04:52;21.60;99.90
55436;DHT22;41307;53.142;6.430;2022-10-30T11:07:27;21.60;99.90
55436;DHT22;41307;53.142;6.430;2022-10-30T11:09:55;21.60;99.90
55436;DHT22;41307;53.142;6.430;2022-10-30T11:12:28;21.60;99.90
55436;DHT22;41307;53.142;6.430;2022-10-30T11:14:56;21.60;99.90
55436;DHT22;41307;53.142;6.430;2022-10-30T11:17:27;21.50;99.90
55436;DHT22;41307;53.142;6.430;2022-10-30T11:20:11;21.50;99.90
55436;DHT22;41307;53.142;6.430;2022-10-30T11:22:41;21.50;99.90
55436;DHT22;41307;53.142;6.430;2022-10-30T11:25:23;21.40;99.90
55436;DHT22;41307;53.142;6.430;2022-10-30T11:27:58;21.40;99.90
55436;DHT22;41307;53.142;6.430;2022-10-30T11:30:26;21.30;99.90
55436;DHT22;41307;53.142;6.430;2022-10-30T11:32:54;21.20;99.90
55436;DHT22;41307;53.142;6.430;2022-10-30T11:35:21;21.10;99.90
55436;DHT22;41307;53.142;6.430;2022-10-30T11:38:03;21.00;99.90
55436;DHT22;41307;53.142;6.430;2022-10-30T11:40:36;21.00;99.90
55436;DHT22;41307;53.142;6.430;2022-10-30T11:43:03;20.90;99.90
55436;DHT22;41307;53.142;6.430;2022-10-30T11:45:31;20.80;99.90
55436;DHT22;41307;53.142;6.430;2022-10-30T11:47:58;20.80;99.90
55436;DHT22;41307;53.142;6.430;2022-10-30T11:50:29;20.70;99.90
55436;DHT22;41307;53.142;6.430;2022-10-30T11:52:59;20.50;99.90
55436;DHT22;41307;53.142;6.430;2022-10-30T11:55:40;20.50;99.90
55436;DHT22;41307;53.142;6.430;2022-10-30T11:58:24;20.50;99.90
55436;DHT22;41307;53.142;6.430;2022-10-30T12:01:03;20.50;99.90
55436;DHT22;41307;53.142;6.430;2022-10-30T12:03:35;20.50;99.90
55436;DHT22;41307;53.142;6.430;2022-10-30T12:06:09;20.40;99.90
55436;DHT22;41307;53.142;6.430;2022-10-30T12:08:36;20.40;99.90
55436;DHT22;41307;53.142;6.430;2022-10-30T12:11:04;20.40;99.90
55436;DHT22;41307;53.142;6.430;2022-10-30T12:13:37;20.40;99.90
55436;DHT22;41307;53.142;6.430;2022-10-30T12:16:16;20.30;99.90
55436;DHT22;41307;53.142;6.430;2022-10-30T12:18:55;20.30;99.90
55436;DHT22;41307;53.142;6.430;2022-10-30T12:21:23;20.30;99.90
55436;DHT22;41307;53.142;6.430;2022-10-30T12:24:01;20.30;99.90
55436;DHT22;41307;53.142;6.430;2022-10-30T12:26:32;20.20;99.90
55436;DHT22;41307;53.142;6.430;2022-10-30T12:29:01;20.20;99.90
55436;DHT22;41307;53.142;6.430;2022-10-30T12:31:36;20.20;99.90
55436;DHT22;41307;53.142;6.430;2022-10-30T12:36:52;20.20;99.90
55436;DHT22;41307;53.142;6.430;2022-10-30T12:39:24;20.10;99.90
55436;DHT22;41307;53.142;6.430;2022-10-30T12:42:04;20.10;99.90
55436;DHT22;41307;53.142;6.430;2022-10-30T12:44:54;20.00;99.90
55436;DHT22;41307;53.142;6.430;2022-10-30T12:52:48;19.90;99.90
55436;DHT22;41307;53.142;6.430;2022-10-30T12:58:25;19.90;99.90
55436;DHT22;41307;53.142;6.430;2022-10-30T13:01:00;20.00;99.90
55436;DHT22;41307;53.142;6.430;2022-10-30T13:03:40;20.00;99.90
55436;DHT22;41307;53.142;6.430;2022-10-30T13:06:12;20.00;99.90
55436;DHT22;41307;53.142;6.430;2022-10-30T13:09:03;20.10;99.90
55436;DHT22;41307;53.142;6.430;2022-10-30T13:11:44;20.10;99.90
55436;DHT22;41307;53.142;6.430;2022-10-30T13:14:17;20.10;99.90
55436;DHT22;41307;53.142;6.430;2022-10-30T13:16:44;20.10;99.90
55436;DHT22;41307;53.142;6.430;2022-10-30T13:19:11;20.00;99.90
55436;DHT22;41307;53.142;6.430;2022-10-30T13:24:42;19.90;99.90
55436;DHT22;41307;53.142;6.430;2022-10-30T13:27:14;19.90;99.90
55436;DHT22;41307;53.142;6.430;2022-10-30T13:30:17;19.90;99.90
55436;DHT22;41307;53.142;6.430;2022-10-30T13:41:23;20.00;99.90
55436;DHT22;41307;53.142;6.430;2022-10-30T13:47:25;19.90;99.90
55436;DHT22;41307;53.142;6.430;2022-10-30T13:52:39;19.80;99.90
55436;DHT22;41307;53.142;6.430;2022-10-30T13:55:38;19.80;99.90
55436;DHT22;41307;53.142;6.430;2022-10-30T13:58:34;19.80;99.90
55436;DHT22;41307;53.142;6.430;2022-10-30T14:04:19;19.70;99.90
55436;DHT22;41307;53.142;6.430;2022-10-30T14:10:00;19.60;99.90
55436;DHT22;41307;53.142;6.430;2022-10-30T14:15:35;19.50;99.90
55436;DHT22;41307;53.142;6.430;2022-10-30T14:20:44;19.50;99.90
55436;DHT22;41307;53.142;6.430;2022-10-30T14:23:32;19.40;99.90
55436;DHT22;41307;53.142;6.430;2022-10-30T14:28:32;19.40;99.90
55436;DHT22;41307;53.142;6.430;2022-10-30T14:31:05;19.30;99.90
55436;DHT22;41307;53.142;6.430;2022-10-30T14:49:11;19.00;99.90
55436;DHT22;41307;53.142;6.430;2022-10-30T14:51:48;19.00;99.90
55436;DHT22;41307;53.142;6.430;2022-10-30T14:54:18;19.00;99.90
55436;DHT22;41307;53.142;6.430;2022-10-30T14:56:49;18.90;99.90
55436;DHT22;41307;53.142;6.430;2022-10-30T15:13:06;18.50;99.90
55436;DHT22;41307;53.142;6.430;2022-10-30T15:15:34;18.40;99.90
55436;DHT22;41307;53.142;6.430;2022-10-30T15:18:14;18.40;99.90
55436;DHT22;41307;53.142;6.430;2022-10-30T15:20:41;18.30;99.90
55436;DHT22;41307;53.142;6.430;2022-10-30T15:23:26;18.30;99.90
55436;DHT22;41307;53.142;6.430;2022-10-30T15:25:57;18.20;99.90
55436;DHT22;41307;53.142;6.430;2022-10-30T15:28:29;18.10;99.90
55436;DHT22;41307;53.142;6.430;2022-10-30T15:33:30;18.00;99.90
55436;DHT22;41307;53.142;6.430;2022-10-30T15:36:00;17.90;99.90
55436;DHT22;41307;53.142;6.430;2022-10-30T15:38:26;17.80;99.90
55436;DHT22;41307;53.142;6.430;2022-10-30T15:41:02;17.80;99.90
55436;DHT22;41307;53.142;6.430;2022-10-30T15:43:32;17.80;99.90
55436;DHT22;41307;53.142;6.430;2022-10-30T15:45:59;17.70;99.90
55436;DHT22;41307;53.142;6.430;2022-10-30T15:48:32;17.70;99.90
55436;DHT22;41307;53.142;6.430;2022-10-30T15:51:15;17.70;99.90
55436;DHT22;41307;53.142;6.430;2022-10-30T15:53:59;17.60;99.90
55436;DHT22;41307;53.142;6.430;2022-10-30T15:56:35;17.50;99.90
55436;DHT22;41307;53.142;6.430;2022-10-30T15:59:06;17.50;99.90
55436;DHT22;41307;53.142;6.430;2022-10-30T16:01:35;17.40;99.90
55436;DHT22;41307;53.142;6.430;2022-10-30T16:04:03;17.40;99.90
55436;DHT22;41307;53.142;6.430;2022-10-30T16:06:37;17.40;99.90
55436;DHT22;41307;53.142;6.430;2022-10-30T16:09:03;17.30;99.90
55436;DHT22;41307;53.142;6.430;2022-10-30T16:11:29;17.30;99.90
55436;DHT22;41307;53.142;6.430;2022-10-30T16:13:55;17.20;99.90
55436;DHT22;41307;53.142;6.430;2022-10-30T16:16:26;17.20;99.90
55436;DHT22;41307;53.142;6.430;2022-10-30T16:18:56;17.20;99.90
55436;DHT22;41307;53.142;6.430;2022-10-30T16:21:23;17.20;99.90
55436;DHT22;41307;53.142;6.430;2022-10-30T16:23:53;16.60;99.90
55436;DHT22;41307;53.142;6.430;2022-10-30T16:26:27;17.10;99.90
55436;DHT22;41307;53.142;6.430;2022-10-30T16:28:54;17.00;99.90
55436;DHT22;41307;53.142;6.430;2022-10-30T16:31:20;17.00;99.90
55436;DHT22;41307;53.142;6.430;2022-10-30T16:33:46;16.90;99.90
55436;DHT22;41307;53.142;6.430;2022-10-30T16:36:14;16.80;99.90
55436;DHT22;41307;53.142;6.430;2022-10-30T16:38:43;16.80;99.90
55436;DHT22;41307;53.142;6.430;2022-10-30T16:41:10;16.70;99.90
55436;DHT22;41307;53.142;6.430;2022-10-30T16:43:39;16.70;99.90
55436;DHT22;41307;53.142;6.430;2022-10-30T16:48:55;16.60;99.90
55436;DHT22;41307;53.142;6.430;2022-10-30T16:51:22;16.50;99.90
55436;DHT22;41307;53.142;6.430;2022-10-30T16:53:50;16.50;99.90
55436;DHT22;41307;53.142;6.430;2022-10-30T16:56:26;16.50;99.90
55436;DHT22;41307;53.142;6.430;2022-10-30T16:58:53;16.40;99.90
55436;DHT22;41307;53.142;6.430;2022-10-30T17:01:26;16.40;99.90
55436;DHT22;41307;53.142;6.430;2022-10-30T17:03:53;16.40;99.90
55436;DHT22;41307;53.142;6.430;2022-10-30T17:06:28;16.40;99.90
55436;DHT22;41307;53.142;6.430;2022-10-30T17:08:59;16.30;99.90
55436;DHT22;41307;53.142;6.430;2022-10-30T17:11:39;16.30;99.90
55436;DHT22;41307;53.142;6.430;2022-10-30T17:14:19;16.30;99.90
55436;DHT22;41307;53.142;6.430;2022-10-30T17:16:56;16.30;99.90
55436;DHT22;41307;53.142;6.430;2022-10-30T17:21:58;16.30;99.90
55436;DHT22;41307;53.142;6.430;2022-10-30T17:24:32;16.30;99.90
55436;DHT22;41307;53.142;6.430;2022-10-30T17:27:00;16.20;99.90
55436;DHT22;41307;53.142;6.430;2022-10-30T17:32:26;16.20;99.90
55436;DHT22;41307;53.142;6.430;2022-10-30T17:34:57;16.20;99.90
55436;DHT22;41307;53.142;6.430;2022-10-30T17:37:25;16.20;99.90
55436;DHT22;41307;53.142;6.430;2022-10-30T17:39:51;16.20;99.90
55436;DHT22;41307;53.142;6.430;2022-10-30T17:42:16;16.20;99.90
55436;DHT22;41307;53.142;6.430;2022-10-30T17:44:42;16.10;99.90
55436;DHT22;41307;53.142;6.430;2022-10-30T17:47:18;16.20;99.90
55436;DHT22;41307;53.142;6.430;2022-10-30T17:49:44;16.20;99.90
55436;DHT22;41307;53.142;6.430;2022-10-30T17:52:15;16.10;99.90
55436;DHT22;41307;53.142;6.430;2022-10-30T17:54:41;16.10;99.90
55436;DHT22;41307;53.142;6.430;2022-10-30T17:57:12;16.10;99.90
55436;DHT22;41307;53.142;6.430;2022-10-30T17:59:38;16.10;99.90